createdAt,value
2023-01-09T00:02:01.882Z,11.57
2023-01-09T00:04:28.492Z,12.80
2023-01-09T00:06:55.933Z,14.07
2023-01-09T00:09:24.277Z,15.95
2023-01-09T00:11:52.168Z,17.50
2023-01-09T00:14:19.682Z,17.55
2023-01-09T00:16:47.001Z,15.13
2023-01-09T00:19:14.013Z,17.13
2023-01-09T00:21:40.903Z,16.08
2023-01-09T00:24:08.000Z,15.52
2023-01-09T00:26:35.735Z,17.45
2023-01-09T00:29:02.412Z,16.25
2023-01-09T00:31:29.053Z,16.70
2023-01-09T00:34:00.237Z,15.75
2023-01-09T00:36:27.667Z,15.82
2023-01-09T00:38:54.357Z,15.82
2023-01-09T00:41:26.747Z,15.68
2023-01-09T00:43:57.008Z,14.50
2023-01-09T00:46:31.093Z,13.68
2023-01-09T00:48:58.578Z,13.43
2023-01-09T00:51:25.528Z,13.25
2023-01-09T00:53:52.630Z,14.20
2023-01-09T00:56:20.952Z,13.85
2023-01-09T00:58:48.387Z,12.43
2023-01-09T01:01:15.564Z,10.73
2023-01-09T01:03:42.239Z,11.77
2023-01-09T01:06:27.790Z,17.02
2023-01-09T01:08:55.981Z,18.02
2023-01-09T01:11:23.457Z,18.98
2023-01-09T01:13:50.598Z,22.10
2023-01-09T01:16:18.455Z,18.75
2023-01-09T01:18:45.552Z,20.25
2023-01-09T01:21:14.127Z,18.73
2023-01-09T01:23:40.826Z,17.80
2023-01-09T01:26:15.517Z,16.48
2023-01-09T01:28:42.769Z,16.23
2023-01-09T01:31:16.535Z,17.02
2023-01-09T01:33:43.146Z,18.20
2023-01-09T01:36:10.402Z,16.08
2023-01-09T01:38:37.157Z,17.23
2023-01-09T01:41:04.856Z,16.38
2023-01-09T01:43:51.302Z,16.17
2023-01-09T01:46:18.992Z,15.25
2023-01-09T01:48:48.308Z,16.00
2023-01-09T01:51:18.365Z,16.48
2023-01-09T01:53:50.316Z,17.45
2023-01-09T01:56:19.579Z,15.35
2023-01-09T01:59:03.467Z,15.25
2023-01-09T02:01:31.016Z,15.95
2023-01-09T02:04:01.193Z,15.75
2023-01-09T02:06:29.839Z,16.92
2023-01-09T02:08:57.846Z,15.25
2023-01-09T02:11:24.835Z,14.65
2023-01-09T02:13:52.328Z,14.05
2023-01-09T02:16:30.645Z,15.65
2023-01-09T02:19:44.740Z,14.43
2023-01-09T02:22:33.054Z,14.23
2023-01-09T02:25:22.436Z,14.63
2023-01-09T02:28:22.433Z,12.50
2023-01-09T02:30:51.942Z,12.85
2023-01-09T02:33:18.434Z,12.20
2023-01-09T02:36:19.042Z,13.95
2023-01-09T02:39:25.604Z,11.07
2023-01-09T02:42:04.254Z,12.55
2023-01-09T02:44:34.003Z,12.75
2023-01-09T02:47:08.555Z,14.98
2023-01-09T02:49:38.569Z,16.58
2023-01-09T02:52:40.361Z,17.38
2023-01-09T02:55:18.700Z,36.60
2023-01-09T02:58:10.248Z,22.75
2023-01-09T03:00:36.837Z,21.02
2023-01-09T03:03:09.383Z,22.67
2023-01-09T03:06:05.980Z,28.60
2023-01-09T03:08:41.940Z,22.98
2023-01-09T03:11:09.410Z,21.83
2023-01-09T03:13:50.560Z,24.35
2023-01-09T03:16:38.117Z,23.33
2023-01-09T03:19:09.866Z,21.85
2023-01-09T03:21:37.274Z,19.40
2023-01-09T03:24:04.302Z,15.32
2023-01-09T03:26:31.465Z,13.73
2023-01-09T03:28:59.230Z,14.57
2023-01-09T03:31:26.546Z,15.07
2023-01-09T03:33:53.472Z,16.50
2023-01-09T03:36:21.356Z,14.02
2023-01-09T03:38:48.162Z,13.90
2023-01-09T03:41:14.907Z,14.25
2023-01-09T03:43:41.513Z,12.95
2023-01-09T03:46:08.136Z,12.73
2023-01-09T03:48:34.877Z,30.45
2023-01-09T03:51:01.480Z,41.15
2023-01-09T03:53:28.903Z,47.90
2023-01-09T03:55:57.450Z,38.47
2023-01-09T03:58:24.850Z,19.02
2023-01-09T04:00:52.644Z,18.75
2023-01-09T04:03:21.077Z,16.15
2023-01-09T04:05:49.659Z,18.10
2023-01-09T04:08:17.034Z,17.23
2023-01-09T04:10:48.323Z,41.30
2023-01-09T04:13:14.922Z,44.67
2023-01-09T04:15:41.775Z,70.70
2023-01-09T04:18:08.485Z,101.32
2023-01-09T04:20:35.189Z,71.60
2023-01-09T04:23:02.163Z,64.50
2023-01-09T04:25:28.754Z,44.60
2023-01-09T04:27:55.351Z,38.38
2023-01-09T04:30:22.047Z,28.95
2023-01-09T04:32:48.713Z,27.92
2023-01-09T04:35:15.368Z,21.50
2023-01-09T04:37:41.900Z,16.80
2023-01-09T04:40:10.497Z,15.40
2023-01-09T04:42:37.570Z,31.27
2023-01-09T04:45:06.416Z,27.48
2023-01-09T04:47:33.198Z,29.05
2023-01-09T04:50:00.981Z,33.65
2023-01-09T04:52:28.096Z,30.95
2023-01-09T04:54:54.656Z,31.75
2023-01-09T04:57:21.668Z,42.35
2023-01-09T04:59:48.242Z,45.17
2023-01-09T05:02:14.957Z,45.90
2023-01-09T05:04:42.020Z,47.88
2023-01-09T05:07:08.812Z,52.95
2023-01-09T05:09:36.182Z,53.63
2023-01-09T05:12:03.386Z,50.28
2023-01-09T05:14:30.040Z,43.47
2023-01-09T05:16:56.669Z,43.97
2023-01-09T05:19:23.703Z,44.28
2023-01-09T05:21:50.426Z,41.20
2023-01-09T05:24:17.197Z,39.03
2023-01-09T05:26:43.756Z,34.70
2023-01-09T05:29:10.758Z,34.35
2023-01-09T05:31:37.490Z,31.73
2023-01-09T05:34:04.118Z,29.02
2023-01-09T05:36:30.721Z,26.85
2023-01-09T05:38:57.989Z,21.40
2023-01-09T05:41:26.247Z,21.42
2023-01-09T05:43:53.134Z,21.17
2023-01-09T05:46:19.863Z,30.08
2023-01-09T05:48:46.544Z,38.97
2023-01-09T05:51:13.279Z,47.90
2023-01-09T05:53:40.245Z,40.67
2023-01-09T05:56:07.115Z,35.17
2023-01-09T05:58:33.802Z,34.70
2023-01-09T06:01:00.535Z,33.58
2023-01-09T06:03:27.137Z,30.33
2023-01-09T06:05:53.762Z,25.73
2023-01-09T06:08:20.393Z,24.73
2023-01-09T06:10:47.704Z,23.88
2023-01-09T06:13:14.455Z,23.13
2023-01-09T06:15:41.482Z,22.88
2023-01-09T06:18:08.535Z,31.05
2023-01-09T06:20:35.156Z,28.83
2023-01-09T06:23:01.764Z,27.23
2023-01-09T06:25:28.334Z,30.30
2023-01-09T06:27:54.923Z,30.75
2023-01-09T06:30:21.629Z,26.80
2023-01-09T06:32:49.368Z,22.02
2023-01-09T06:35:20.727Z,18.88
2023-01-09T06:37:49.794Z,19.83
2023-01-09T06:40:17.580Z,23.50
2023-01-09T06:42:45.702Z,23.83
2023-01-09T06:45:13.322Z,24.35
2023-01-09T06:47:40.543Z,24.98
2023-01-09T06:50:09.469Z,29.05
2023-01-09T06:52:36.968Z,31.60
2023-01-09T06:55:03.993Z,31.17
2023-01-09T06:57:30.840Z,29.15
2023-01-09T06:59:57.927Z,38.65
2023-01-09T07:02:25.515Z,33.10
2023-01-09T07:04:52.087Z,33.13
2023-01-09T07:07:19.910Z,27.63
2023-01-09T07:09:46.713Z,24.55
2023-01-09T07:12:14.929Z,23.50
2023-01-09T07:14:41.885Z,23.00
2023-01-09T07:17:10.091Z,24.25
2023-01-09T07:19:36.803Z,21.45
2023-01-09T07:22:03.363Z,19.60
2023-01-09T07:24:29.935Z,22.25
2023-01-09T07:26:56.676Z,23.52
2023-01-09T07:29:23.257Z,22.13
2023-01-09T07:31:49.913Z,22.92
2023-01-09T07:34:16.463Z,31.63
2023-01-09T07:36:46.475Z,31.02
2023-01-09T07:39:13.711Z,32.80
2023-01-09T07:41:40.714Z,25.58
2023-01-09T07:44:09.582Z,27.27
2023-01-09T07:46:37.635Z,26.00
2023-01-09T07:49:04.528Z,25.92
2023-01-09T07:51:31.136Z,41.88
2023-01-09T07:53:57.752Z,41.70
2023-01-09T07:56:24.548Z,36.78
2023-01-09T07:58:51.109Z,30.75
2023-01-09T08:01:17.865Z,26.60
2023-01-09T08:03:44.485Z,26.40
2023-01-09T08:06:11.079Z,27.55
2023-01-09T08:08:37.640Z,26.63
2023-01-09T08:11:04.360Z,30.70
2023-01-09T08:13:31.039Z,27.52
2023-01-09T08:15:57.625Z,25.00
2023-01-09T08:18:24.303Z,25.83
2023-01-09T08:20:51.052Z,25.35
2023-01-09T08:23:17.882Z,24.80
2023-01-09T08:25:44.548Z,27.33
2023-01-09T08:28:11.170Z,35.50
2023-01-09T08:30:38.846Z,50.08
2023-01-09T08:33:05.971Z,89.88
2023-01-09T08:35:32.607Z,73.50
2023-01-09T08:37:59.242Z,56.30
2023-01-09T08:40:25.892Z,56.38
2023-01-09T08:43:10.914Z,50.13
2023-01-09T08:45:56.007Z,56.33
2023-01-09T08:48:22.597Z,42.15
2023-01-09T08:50:49.267Z,42.15
2023-01-09T08:53:15.879Z,43.40
2023-01-09T08:55:43.063Z,45.15
2023-01-09T08:58:09.758Z,36.05
2023-01-09T09:00:36.482Z,24.95
2023-01-09T09:03:03.175Z,22.65
2023-01-09T09:05:31.446Z,21.55
2023-01-09T09:07:59.107Z,20.60
2023-01-09T09:10:28.387Z,21.88
2023-01-09T09:12:57.369Z,19.27
2023-01-09T09:15:25.309Z,19.95
2023-01-09T09:17:54.568Z,22.20
2023-01-09T09:20:23.494Z,21.45
2023-01-09T09:22:50.608Z,19.88
2023-01-09T09:25:18.447Z,18.90
2023-01-09T09:27:45.457Z,20.75
2023-01-09T09:30:13.926Z,23.85
2023-01-09T09:32:41.019Z,26.73
2023-01-09T09:35:08.373Z,29.60
2023-01-09T09:37:35.081Z,23.92
2023-01-09T09:40:13.255Z,23.55
2023-01-09T09:43:02.909Z,20.45
2023-01-09T09:45:43.696Z,20.75
2023-01-09T09:48:53.774Z,19.35
2023-01-09T09:51:49.843Z,25.08
2023-01-09T09:54:25.888Z,30.80
2023-01-09T09:56:56.747Z,26.48
2023-01-09T09:59:27.324Z,25.88
2023-01-09T10:01:59.127Z,24.70
2023-01-09T10:04:28.759Z,29.25
2023-01-09T10:07:00.320Z,26.90
2023-01-09T10:09:55.663Z,25.38
2023-01-09T10:12:22.218Z,26.17
2023-01-09T10:14:48.865Z,27.15
2023-01-09T10:17:40.870Z,31.33
2023-01-09T10:20:22.749Z,35.83
2023-01-09T10:23:03.423Z,36.85
2023-01-09T10:25:50.229Z,35.05
2023-01-09T10:28:44.085Z,48.33
2023-01-09T10:32:06.157Z,62.78
2023-01-09T10:34:38.603Z,39.97
2023-01-09T10:37:11.005Z,26.50
2023-01-09T10:39:55.558Z,25.45
2023-01-09T10:42:48.972Z,28.60
2023-01-09T10:45:34.995Z,31.48
2023-01-09T10:48:09.903Z,40.03
2023-01-09T10:50:41.775Z,41.67
2023-01-09T10:53:20.638Z,33.90
2023-01-09T10:55:51.968Z,33.63
2023-01-09T10:58:21.123Z,56.38
2023-01-09T11:00:49.259Z,36.13
2023-01-09T11:03:21.933Z,29.42
2023-01-09T11:05:54.952Z,30.67
2023-01-09T11:08:24.558Z,26.63
2023-01-09T11:10:56.631Z,26.85
2023-01-09T11:13:33.720Z,28.13
2023-01-09T11:16:05.722Z,27.05
2023-01-09T11:18:35.120Z,30.00
2023-01-09T11:21:29.779Z,32.35
2023-01-09T11:23:57.483Z,27.80
2023-01-09T11:26:27.257Z,21.60
2023-01-09T11:29:06.431Z,24.88
2023-01-09T11:31:33.654Z,26.27
2023-01-09T11:34:00.512Z,27.30
2023-01-09T11:36:27.700Z,25.80
2023-01-09T11:38:57.038Z,24.88
2023-01-09T11:41:34.685Z,39.95
2023-01-09T11:44:04.032Z,19.08
2023-01-09T11:46:41.962Z,28.63
2023-01-09T11:49:22.279Z,27.88
2023-01-09T11:52:19.562Z,23.20
2023-01-09T11:54:55.429Z,25.08
2023-01-09T11:57:24.343Z,25.08
2023-01-09T11:59:50.950Z,25.17
2023-01-09T12:02:43.678Z,21.48
2023-01-09T12:05:35.064Z,23.10
2023-01-09T12:08:07.639Z,20.95
2023-01-09T12:10:49.589Z,27.70
2023-01-09T12:13:19.030Z,25.70
2023-01-09T12:16:23.302Z,29.65
2023-01-09T12:19:23.994Z,30.55
2023-01-09T12:22:13.592Z,40.95
2023-01-09T12:24:40.080Z,34.15
2023-01-09T12:27:36.554Z,33.92
2023-01-09T12:30:26.776Z,30.38
2023-01-09T12:33:19.606Z,33.20
2023-01-09T12:36:01.865Z,34.70
2023-01-09T12:39:00.900Z,40.13
2023-01-09T12:41:48.194Z,41.30
2023-01-09T12:44:51.313Z,43.88
2023-01-09T12:47:34.706Z,41.03
2023-01-09T12:50:16.435Z,37.95
2023-01-09T12:53:06.218Z,38.00
2023-01-09T12:55:37.193Z,40.55
2023-01-09T12:58:17.321Z,33.88
2023-01-09T13:00:50.077Z,24.63
2023-01-09T13:03:49.391Z,28.13
2023-01-09T13:06:19.439Z,28.73
2023-01-09T13:08:53.371Z,28.70
2023-01-09T13:11:31.620Z,25.55
2023-01-09T13:14:04.291Z,26.50
2023-01-09T13:16:37.338Z,29.83
2023-01-09T13:19:13.241Z,24.05
2023-01-09T13:21:41.211Z,24.13
2023-01-09T13:24:15.324Z,24.35
2023-01-09T13:26:47.148Z,21.98
2023-01-09T13:29:25.116Z,21.02
2023-01-09T13:32:12.071Z,21.80
2023-01-09T13:34:39.812Z,20.65
2023-01-09T13:37:33.023Z,20.30
2023-01-09T13:40:02.732Z,22.20
2023-01-09T13:42:35.978Z,20.60
2023-01-09T13:45:27.106Z,18.75
2023-01-09T13:48:14.524Z,18.83
2023-01-09T13:50:42.598Z,21.73
2023-01-09T13:53:32.519Z,25.75
2023-01-09T13:55:59.410Z,20.95
2023-01-09T13:58:32.096Z,21.35
2023-01-09T14:00:58.847Z,27.02
2023-01-09T14:03:35.124Z,23.70
2023-01-09T14:06:01.675Z,29.13
2023-01-09T14:08:30.169Z,56.00
2023-01-09T14:11:02.153Z,53.00
2023-01-09T14:14:00.226Z,32.15
2023-01-09T14:16:27.218Z,33.17
2023-01-09T14:18:57.509Z,24.52
2023-01-09T14:21:24.307Z,27.52
2023-01-09T14:23:59.224Z,27.98
2023-01-09T14:26:57.275Z,34.53
2023-01-09T14:29:39.947Z,33.05
2023-01-09T14:32:26.477Z,25.95
2023-01-09T14:35:03.578Z,26.27
2023-01-09T14:37:31.128Z,25.38
2023-01-09T14:39:58.753Z,23.23
2023-01-09T14:42:29.492Z,23.73
2023-01-09T14:44:58.791Z,23.38
2023-01-09T14:47:31.255Z,27.63
2023-01-09T14:50:21.551Z,24.43
2023-01-09T14:52:51.870Z,33.40
2023-01-09T14:55:26.825Z,33.60
2023-01-09T14:57:55.338Z,20.88
2023-01-09T15:00:23.336Z,23.30
2023-01-09T15:02:53.553Z,23.85
2023-01-09T15:05:26.483Z,23.05
2023-01-09T15:08:01.770Z,24.33
2023-01-09T15:10:32.601Z,23.80
2023-01-09T15:13:01.814Z,23.52
2023-01-09T15:15:28.819Z,22.83
2023-01-09T15:18:07.855Z,22.40
2023-01-09T15:20:35.100Z,23.63
2023-01-09T15:23:04.259Z,24.80
2023-01-09T15:25:38.770Z,27.20
2023-01-09T15:28:27.238Z,28.20
2023-01-09T15:31:07.406Z,25.27
2023-01-09T15:33:35.294Z,23.90
2023-01-09T15:36:05.436Z,24.25
2023-01-09T15:38:33.528Z,28.27
2023-01-09T15:41:13.413Z,27.00
2023-01-09T15:43:43.141Z,23.75
2023-01-09T15:46:12.088Z,24.23
2023-01-09T15:48:38.824Z,27.05
2023-01-09T15:51:14.489Z,27.02
2023-01-09T15:53:42.869Z,37.88
2023-01-09T15:56:12.426Z,36.17
2023-01-09T15:58:46.985Z,33.63
2023-01-09T16:01:19.535Z,27.83
2023-01-09T16:03:46.278Z,25.27
2023-01-09T16:06:30.760Z,24.52
2023-01-09T16:08:59.662Z,24.35
2023-01-09T16:11:31.161Z,31.13
2023-01-09T16:14:09.883Z,25.25
2023-01-09T16:16:37.080Z,24.13
2023-01-09T16:19:04.011Z,23.83
2023-01-09T16:21:38.501Z,25.08
2023-01-09T16:24:14.010Z,25.73
2023-01-09T16:26:40.597Z,28.73
2023-01-09T16:29:27.730Z,34.85
2023-01-09T16:32:02.684Z,48.00
2023-01-09T16:34:30.107Z,60.08
2023-01-09T16:36:56.945Z,91.97
2023-01-09T16:39:25.589Z,126.82
2023-01-09T16:42:11.475Z,123.10
2023-01-09T16:44:38.102Z,129.90
2023-01-09T16:47:04.988Z,123.55
2023-01-09T16:49:31.593Z,106.47
2023-01-09T16:52:02.928Z,99.50
2023-01-09T16:54:30.489Z,101.78
2023-01-09T16:56:57.227Z,103.40
2023-01-09T16:59:27.377Z,103.65
2023-01-09T17:01:54.870Z,110.40
2023-01-09T17:04:23.853Z,103.25
2023-01-09T17:06:51.551Z,101.82
2023-01-09T17:09:20.476Z,86.65
2023-01-09T17:11:47.222Z,85.35
2023-01-09T17:14:14.790Z,71.30
2023-01-09T17:16:45.802Z,80.05
2023-01-09T17:19:18.662Z,107.65
2023-01-09T17:21:45.724Z,106.95
2023-01-09T17:24:31.061Z,98.22
2023-01-09T17:27:16.771Z,89.03
2023-01-09T17:29:44.601Z,85.60
2023-01-09T17:32:16.069Z,85.22
2023-01-09T17:34:43.290Z,80.97
2023-01-09T17:37:19.628Z,85.90
2023-01-09T17:39:46.569Z,90.22
2023-01-09T17:42:13.209Z,81.10
2023-01-09T17:44:39.834Z,89.50
2023-01-09T17:47:07.388Z,90.53
2023-01-09T17:49:34.290Z,91.43
2023-01-09T17:52:00.939Z,107.95
2023-01-09T17:54:27.501Z,106.78
2023-01-09T17:56:54.474Z,92.85
2023-01-09T17:59:21.169Z,79.55
2023-01-09T18:01:47.904Z,71.10
2023-01-09T18:04:14.526Z,68.38
2023-01-09T18:06:41.291Z,76.03
2023-01-09T18:09:08.540Z,72.07
2023-01-09T18:11:35.167Z,76.25
2023-01-09T18:14:01.861Z,66.32
2023-01-09T18:16:29.108Z,64.07
2023-01-09T18:18:58.753Z,62.75
2023-01-09T18:21:26.818Z,56.33
2023-01-09T18:23:54.388Z,62.58
2023-01-09T18:26:22.444Z,69.63
2023-01-09T18:28:53.288Z,66.07
2023-01-09T18:31:24.550Z,64.80
2023-01-09T18:33:52.777Z,65.72
2023-01-09T18:36:22.541Z,73.13
2023-01-09T18:38:51.998Z,63.78
2023-01-09T18:41:19.482Z,52.17
2023-01-09T18:43:51.326Z,54.97
2023-01-09T18:46:25.754Z,57.15
2023-01-09T18:48:57.862Z,58.22
2023-01-09T18:51:27.171Z,55.78
2023-01-09T18:53:55.953Z,49.20
2023-01-09T18:56:23.563Z,68.53
2023-01-09T18:58:53.559Z,66.93
2023-01-09T19:01:20.258Z,64.63
2023-01-09T19:03:47.016Z,57.63
2023-01-09T19:06:13.658Z,50.90
2023-01-09T19:08:40.547Z,63.20
2023-01-09T19:11:07.414Z,61.63
2023-01-09T19:13:37.351Z,59.13
2023-01-09T19:16:06.066Z,57.05
2023-01-09T19:18:35.265Z,52.28
2023-01-09T19:21:02.547Z,53.80
2023-01-09T19:23:29.202Z,54.75
2023-01-09T19:25:57.735Z,61.55
2023-01-09T19:28:24.537Z,81.05
2023-01-09T19:30:57.918Z,83.97
2023-01-09T19:33:25.361Z,79.88
2023-01-09T19:35:53.935Z,76.95
2023-01-09T19:38:23.980Z,72.10
2023-01-09T19:40:52.058Z,101.18
2023-01-09T19:43:29.756Z,84.18
2023-01-09T19:45:56.855Z,68.32
2023-01-09T19:48:26.472Z,68.93
2023-01-09T19:51:06.691Z,64.72
2023-01-09T19:53:36.126Z,62.17
2023-01-09T19:56:15.779Z,59.17
2023-01-09T19:58:49.803Z,63.30
2023-01-09T20:01:21.130Z,74.45
2023-01-09T20:03:50.335Z,74.97
2023-01-09T20:06:24.353Z,50.05
2023-01-09T20:08:57.813Z,55.33
2023-01-09T20:11:28.949Z,59.65
2023-01-09T20:14:00.629Z,61.00
2023-01-09T20:16:31.704Z,66.15
2023-01-09T20:19:00.847Z,65.18
2023-01-09T20:21:28.896Z,63.55
2023-01-09T20:23:59.668Z,66.13
2023-01-09T20:26:27.525Z,64.20
2023-01-09T20:28:55.659Z,78.43
2023-01-09T20:31:24.192Z,74.13
2023-01-09T20:33:51.389Z,65.43
2023-01-09T20:36:19.554Z,64.25
2023-01-09T20:38:46.134Z,62.38
2023-01-09T20:41:23.183Z,51.90
2023-01-09T20:43:53.998Z,50.53
2023-01-09T20:46:23.367Z,52.92
2023-01-09T20:48:50.335Z,53.08
2023-01-09T20:51:17.855Z,50.53
2023-01-09T20:53:46.161Z,55.03
2023-01-09T20:56:13.070Z,50.85
2023-01-09T20:58:41.044Z,48.40
2023-01-09T21:01:11.800Z,56.45
2023-01-09T21:03:39.552Z,66.90
2023-01-09T21:06:11.373Z,70.50
2023-01-09T21:08:38.545Z,69.93
2023-01-09T21:11:05.722Z,76.60
2023-01-09T21:13:32.554Z,72.15
2023-01-09T21:16:04.604Z,59.85
2023-01-09T21:18:31.704Z,64.55
2023-01-09T21:21:02.421Z,68.05
2023-01-09T21:23:28.994Z,71.18
2023-01-09T21:25:55.627Z,64.90
2023-01-09T21:28:23.650Z,65.60
2023-01-09T21:30:50.328Z,63.22
2023-01-09T21:33:21.007Z,61.88
2023-01-09T21:35:57.837Z,54.35
2023-01-09T21:38:26.252Z,54.60
2023-01-09T21:40:53.990Z,59.03
2023-01-09T21:43:48.661Z,57.13
2023-01-09T21:46:36.787Z,47.20
2023-01-09T21:49:06.879Z,46.22
2023-01-09T21:51:38.982Z,39.47
2023-01-09T21:54:05.620Z,38.25
2023-01-09T21:56:32.218Z,35.72
2023-01-09T21:58:58.795Z,37.28
2023-01-09T22:01:25.524Z,37.92
2023-01-09T22:03:55.959Z,35.20
2023-01-09T22:06:23.296Z,38.17
2023-01-09T22:08:50.038Z,39.53
2023-01-09T22:11:16.860Z,36.47
2023-01-09T22:13:47.976Z,38.83
2023-01-09T22:16:14.615Z,40.50
2023-01-09T22:18:41.494Z,39.30
2023-01-09T22:21:09.587Z,41.30
2023-01-09T22:23:36.220Z,39.15
2023-01-09T22:26:13.697Z,37.05
2023-01-09T22:28:41.033Z,40.40
2023-01-09T22:31:15.331Z,41.53
2023-01-09T22:33:42.575Z,40.70
2023-01-09T22:36:11.529Z,42.13
2023-01-09T22:38:38.360Z,43.28
2023-01-09T22:41:05.557Z,39.38
2023-01-09T22:43:32.163Z,38.50
2023-01-09T22:46:00.975Z,36.85
2023-01-09T22:48:31.422Z,40.05
2023-01-09T22:51:14.020Z,49.00
2023-01-09T22:53:40.703Z,57.10
2023-01-09T22:56:10.083Z,55.47
2023-01-09T22:58:36.897Z,57.70
2023-01-09T23:01:04.504Z,55.08
2023-01-09T23:03:31.647Z,49.05
2023-01-09T23:06:15.508Z,48.22
2023-01-09T23:08:42.736Z,48.65
2023-01-09T23:11:16.640Z,46.10
2023-01-09T23:13:43.278Z,47.22
2023-01-09T23:16:09.938Z,49.72
2023-01-09T23:18:36.496Z,47.55
2023-01-09T23:21:04.704Z,62.10
2023-01-09T23:23:32.232Z,66.75
2023-01-09T23:26:02.139Z,59.80
2023-01-09T23:28:30.453Z,52.22
2023-01-09T23:30:57.371Z,49.70
2023-01-09T23:33:24.001Z,46.72
2023-01-09T23:35:50.617Z,47.38
2023-01-09T23:38:17.270Z,52.40
2023-01-09T23:40:43.899Z,53.95
2023-01-09T23:43:12.279Z,50.22
2023-01-09T23:45:44.364Z,52.70
2023-01-09T23:48:13.767Z,50.97
2023-01-09T23:50:50.939Z,51.83
2023-01-09T23:53:19.584Z,48.65
2023-01-09T23:55:46.532Z,46.63
2023-01-09T23:58:13.146Z,41.50
